createdAt,value
2022-07-25T00:00:44.903Z,19.16
2022-07-25T00:01:44.910Z,19.16
2022-07-25T00:02:44.972Z,19.16
2022-07-25T00:03:53.339Z,19.14
2022-07-25T00:04:44.822Z,19.16
2022-07-25T00:05:45.452Z,19.16
2022-07-25T00:06:53.262Z,19.16
2022-07-25T00:07:44.764Z,19.14
2022-07-25T00:08:44.744Z,19.13
2022-07-25T00:09:44.677Z,19.11
2022-07-25T00:10:44.682Z,19.10
2022-07-25T00:11:44.693Z,19.13
2022-07-25T00:12:44.661Z,19.13
2022-07-25T00:13:44.691Z,19.13
2022-07-25T00:14:44.663Z,19.10
2022-07-25T00:15:44.700Z,19.11
2022-07-25T00:16:44.681Z,19.07
2022-07-25T00:17:44.625Z,19.08
2022-07-25T00:18:44.632Z,19.07
2022-07-25T00:19:44.605Z,19.06
2022-07-25T00:20:44.613Z,19.02
2022-07-25T00:21:44.609Z,18.99
2022-07-25T00:22:44.618Z,19.00
2022-07-25T00:23:44.571Z,18.98
2022-07-25T00:24:44.572Z,18.98
2022-07-25T00:25:44.565Z,18.94
2022-07-25T00:26:44.504Z,18.94
2022-07-25T00:27:44.527Z,18.91
2022-07-25T00:28:44.538Z,18.90
2022-07-25T00:30:00.161Z,18.84
2022-07-25T00:30:44.521Z,18.81
2022-07-25T00:31:58.344Z,18.76
2022-07-25T00:32:44.455Z,18.73
2022-07-25T00:33:44.435Z,18.70
2022-07-25T00:34:44.411Z,18.72
2022-07-25T00:35:44.406Z,18.73
2022-07-25T00:36:44.428Z,18.67
2022-07-25T00:37:44.376Z,18.66
2022-07-25T00:38:44.361Z,18.65
2022-07-25T00:39:44.354Z,18.60
2022-07-25T00:40:44.360Z,18.60
2022-07-25T00:41:44.354Z,18.58
2022-07-25T00:42:44.332Z,18.58
2022-07-25T00:43:44.349Z,18.57
2022-07-25T00:44:44.304Z,18.54
2022-07-25T00:45:44.304Z,18.54
2022-07-25T00:46:44.350Z,18.54
2022-07-25T00:47:44.392Z,18.51
2022-07-25T00:48:44.335Z,18.50
2022-07-25T00:49:44.237Z,18.47
2022-07-25T00:50:44.282Z,18.47
2022-07-25T00:51:44.214Z,18.45
2022-07-25T00:52:44.225Z,18.45
2022-07-25T00:53:44.228Z,18.41
2022-07-25T00:54:44.194Z,18.42
2022-07-25T00:55:44.221Z,18.42
2022-07-25T00:56:44.188Z,18.39
2022-07-25T00:57:44.199Z,18.37
2022-07-25T00:58:44.153Z,18.36
2022-07-25T00:59:44.157Z,18.36
2022-07-25T01:00:44.166Z,18.32
2022-07-25T01:01:44.209Z,18.32
2022-07-25T01:02:44.189Z,18.33
2022-07-25T01:03:44.133Z,18.32
2022-07-25T01:04:44.115Z,18.29
2022-07-25T01:05:44.090Z,18.26
2022-07-25T01:06:44.063Z,18.26
2022-07-25T01:07:44.068Z,18.26
2022-07-25T01:08:44.062Z,18.26
2022-07-25T01:09:44.038Z,18.26
2022-07-25T01:10:44.133Z,18.27
2022-07-25T01:11:44.020Z,18.21
2022-07-25T01:12:44.017Z,18.20
2022-07-25T01:13:43.987Z,18.20
2022-07-25T01:14:43.984Z,18.21
2022-07-25T01:15:44.112Z,18.21
2022-07-25T01:16:44.000Z,18.20
2022-07-25T01:17:43.978Z,18.17
2022-07-25T01:18:43.967Z,18.14
2022-07-25T01:19:43.981Z,18.12
2022-07-25T01:20:43.922Z,18.10
2022-07-25T01:21:43.947Z,18.08
2022-07-25T01:22:43.905Z,18.07
2022-07-25T01:23:43.892Z,18.02
2022-07-25T01:24:43.888Z,18.00
2022-07-25T01:25:43.857Z,17.97
2022-07-25T01:26:43.856Z,17.96
2022-07-25T01:27:43.879Z,17.96
2022-07-25T01:28:43.841Z,17.95
2022-07-25T01:29:43.832Z,17.95
2022-07-25T01:30:43.938Z,17.96
2022-07-25T01:31:43.833Z,17.95
2022-07-25T01:32:43.811Z,17.93
2022-07-25T01:33:43.835Z,17.86
2022-07-25T01:34:43.839Z,17.86
2022-07-25T01:35:43.856Z,17.89
2022-07-25T01:36:43.810Z,17.87
2022-07-25T01:37:45.957Z,17.86
2022-07-25T01:38:43.775Z,17.84
2022-07-25T01:39:43.832Z,17.82
2022-07-25T01:40:43.793Z,17.82
2022-07-25T01:41:43.732Z,17.79
2022-07-25T01:42:43.709Z,17.78
2022-07-25T01:43:43.699Z,17.78
2022-07-25T01:44:43.800Z,17.77
2022-07-25T01:45:43.704Z,17.75
2022-07-25T01:46:43.833Z,17.75
2022-07-25T01:47:43.662Z,17.72
2022-07-25T01:48:43.906Z,17.71
2022-07-25T01:49:43.653Z,17.71
2022-07-25T01:50:43.626Z,17.70
2022-07-25T01:51:43.613Z,17.70
2022-07-25T01:52:43.646Z,17.64
2022-07-25T01:53:43.592Z,17.66
2022-07-25T01:54:43.622Z,17.64
2022-07-25T01:55:43.562Z,17.62
2022-07-25T01:56:43.607Z,17.62
2022-07-25T01:57:49.836Z,17.59
2022-07-25T01:58:44.565Z,17.62
2022-07-25T01:59:43.534Z,17.58
2022-07-25T02:00:43.512Z,17.58
2022-07-25T02:01:43.624Z,17.58
2022-07-25T02:02:43.521Z,17.59
2022-07-25T02:03:43.572Z,17.58
2022-07-25T02:04:43.568Z,17.58
2022-07-25T02:05:43.492Z,17.55
2022-07-25T02:06:43.489Z,17.54
2022-07-25T02:07:43.444Z,17.51
2022-07-25T02:08:43.417Z,17.51
2022-07-25T02:09:43.415Z,17.48
2022-07-25T02:10:43.420Z,17.46
2022-07-25T02:11:43.422Z,17.43
2022-07-25T02:12:43.394Z,17.43
2022-07-25T02:13:43.393Z,17.41
2022-07-25T02:14:43.370Z,17.38
2022-07-25T02:15:43.367Z,17.38
2022-07-25T02:16:43.361Z,17.36
2022-07-25T02:17:43.333Z,17.36
2022-07-25T02:18:43.312Z,17.37
2022-07-25T02:19:43.406Z,17.37
2022-07-25T02:20:43.327Z,17.36
2022-07-25T02:21:43.281Z,17.37
2022-07-25T02:22:43.271Z,17.36
2022-07-25T02:23:43.244Z,17.36
2022-07-25T02:24:43.266Z,17.34
2022-07-25T02:25:43.256Z,17.31
2022-07-25T02:26:43.257Z,17.28
2022-07-25T02:27:43.248Z,17.26
2022-07-25T02:28:43.198Z,17.26
2022-07-25T02:29:43.195Z,17.25
2022-07-25T02:30:43.250Z,17.25
2022-07-25T02:31:43.157Z,17.25
2022-07-25T02:32:43.145Z,17.25
2022-07-25T02:33:43.212Z,17.22
2022-07-25T02:34:43.133Z,17.25
2022-07-25T02:35:43.187Z,17.18
2022-07-25T02:36:43.134Z,17.21
2022-07-25T02:37:43.115Z,17.21
2022-07-25T02:38:43.146Z,17.16
2022-07-25T02:39:43.137Z,17.15
2022-07-25T02:40:43.066Z,17.12
2022-07-25T02:41:43.052Z,17.14
2022-07-25T02:42:43.088Z,17.08
2022-07-25T02:43:43.066Z,17.08
2022-07-25T02:44:43.108Z,17.08
2022-07-25T02:45:43.075Z,17.07
2022-07-25T02:46:42.997Z,17.06
2022-07-25T02:47:42.998Z,17.06
2022-07-25T02:48:43.040Z,17.07
2022-07-25T02:49:43.028Z,17.06
2022-07-25T02:50:42.980Z,17.08
2022-07-25T02:51:42.969Z,17.12
2022-07-25T02:52:42.936Z,17.11
2022-07-25T02:53:59.067Z,17.11
2022-07-25T02:54:43.949Z,17.08
2022-07-25T02:55:42.882Z,17.11
2022-07-25T02:56:43.155Z,17.06
2022-07-25T02:57:42.866Z,17.07
2022-07-25T02:58:42.868Z,17.07
2022-07-25T02:59:42.841Z,17.06
2022-07-25T03:00:42.901Z,17.03
2022-07-25T03:01:42.969Z,17.03
2022-07-25T03:02:42.840Z,16.98
2022-07-25T03:03:42.890Z,16.98
2022-07-25T03:04:42.778Z,16.96
2022-07-25T03:05:42.778Z,16.94
2022-07-25T03:06:42.769Z,16.93
2022-07-25T03:07:42.763Z,16.89
2022-07-25T03:08:42.786Z,16.89
2022-07-25T03:09:42.753Z,16.89
2022-07-25T03:10:42.725Z,16.86
2022-07-25T03:11:42.716Z,16.83
2022-07-25T03:12:42.761Z,16.82
2022-07-25T03:13:42.741Z,16.81
2022-07-25T03:14:42.697Z,16.79
2022-07-25T03:15:42.663Z,16.79
2022-07-25T03:16:42.706Z,16.76
2022-07-25T03:17:42.681Z,16.78
2022-07-25T03:18:42.698Z,16.78
2022-07-25T03:19:42.691Z,16.78
2022-07-25T03:20:42.747Z,16.81
2022-07-25T03:21:42.631Z,16.79
2022-07-25T03:22:42.588Z,16.76
2022-07-25T03:23:43.547Z,16.75
2022-07-25T03:24:42.583Z,16.75
2022-07-25T03:25:44.078Z,16.73
2022-07-25T03:26:42.552Z,16.71
2022-07-25T03:27:42.631Z,16.73
2022-07-25T03:28:42.553Z,16.73
2022-07-25T03:29:42.585Z,16.73
2022-07-25T03:30:42.519Z,16.75
2022-07-25T03:31:42.545Z,16.71
2022-07-25T03:32:42.570Z,16.68
2022-07-25T03:33:42.496Z,16.67
2022-07-25T03:34:42.550Z,16.67
2022-07-25T03:35:42.567Z,16.64
2022-07-25T03:36:42.451Z,16.67
2022-07-25T03:37:42.467Z,16.66
2022-07-25T03:38:42.437Z,16.67
2022-07-25T03:39:42.401Z,16.66
2022-07-25T03:40:42.401Z,16.67
2022-07-25T03:41:42.392Z,16.68
2022-07-25T03:42:42.375Z,16.67
2022-07-25T03:43:42.356Z,16.66
2022-07-25T03:44:42.358Z,16.68
2022-07-25T03:45:42.437Z,16.67
2022-07-25T03:46:42.323Z,16.67
2022-07-25T03:47:42.303Z,16.68
2022-07-25T03:48:42.354Z,16.70
2022-07-25T03:49:42.286Z,16.70
2022-07-25T03:50:42.266Z,16.70
2022-07-25T03:51:42.349Z,16.71
2022-07-25T03:52:42.261Z,16.73
2022-07-25T03:53:42.262Z,16.73
2022-07-25T03:54:42.254Z,16.73
2022-07-25T03:55:42.241Z,16.73
2022-07-25T03:56:43.824Z,16.76
2022-07-25T03:57:42.223Z,16.76
2022-07-25T03:58:42.217Z,16.76
2022-07-25T03:59:42.211Z,16.75
2022-07-25T04:00:42.278Z,16.75
2022-07-25T04:01:42.180Z,16.78
2022-07-25T04:02:42.225Z,16.81
2022-07-25T04:03:42.142Z,16.83
2022-07-25T04:04:42.142Z,16.86
2022-07-25T04:05:47.104Z,16.91
2022-07-25T04:06:43.136Z,16.88
2022-07-25T04:07:42.185Z,16.88
2022-07-25T04:08:42.081Z,16.88
2022-07-25T04:09:42.101Z,16.89
2022-07-25T04:10:42.115Z,16.91
2022-07-25T04:11:42.080Z,16.91
2022-07-25T04:12:42.046Z,16.91
2022-07-25T04:13:42.056Z,16.93
2022-07-25T04:14:42.060Z,16.94
2022-07-25T04:15:42.002Z,16.96
2022-07-25T04:16:42.073Z,16.96
2022-07-25T04:17:42.091Z,16.96
2022-07-25T04:18:42.017Z,16.94
2022-07-25T04:19:42.000Z,16.97
2022-07-25T04:20:42.018Z,16.97
2022-07-25T04:21:42.020Z,16.98
2022-07-25T04:22:46.268Z,16.97
2022-07-25T04:23:41.895Z,17.01
2022-07-25T04:24:41.892Z,17.01
2022-07-25T04:25:41.887Z,17.04
2022-07-25T04:26:41.868Z,17.04
2022-07-25T04:27:41.914Z,17.06
2022-07-25T04:28:41.946Z,17.11
2022-07-25T04:29:41.894Z,17.14
2022-07-25T04:30:41.853Z,17.19
2022-07-25T04:31:41.870Z,17.25
2022-07-25T04:32:41.916Z,17.30
2022-07-25T04:33:41.862Z,17.34
2022-07-25T04:34:41.827Z,17.38
2022-07-25T04:35:41.826Z,17.38
2022-07-25T04:36:41.816Z,17.43
2022-07-25T04:37:41.881Z,17.46
2022-07-25T04:38:41.752Z,17.52
2022-07-25T04:39:41.756Z,17.54
2022-07-25T04:40:41.752Z,17.56
2022-07-25T04:41:41.727Z,17.62
2022-07-25T04:42:41.810Z,17.62
2022-07-25T04:43:47.985Z,17.64
2022-07-25T04:44:43.239Z,17.68
2022-07-25T04:45:41.838Z,17.70
2022-07-25T04:46:41.677Z,17.70
2022-07-25T04:47:41.721Z,17.74
2022-07-25T04:48:41.668Z,17.75
2022-07-25T04:49:41.668Z,17.78
2022-07-25T04:50:41.601Z,17.78
2022-07-25T04:51:41.600Z,17.81
2022-07-25T04:52:41.702Z,17.87
2022-07-25T04:53:41.590Z,17.90
2022-07-25T04:54:41.582Z,17.95
2022-07-25T04:55:41.555Z,18.00
2022-07-25T04:56:41.563Z,18.03
2022-07-25T04:57:41.538Z,18.05
2022-07-25T04:58:41.521Z,18.11
2022-07-25T04:59:41.515Z,18.14
2022-07-25T05:00:41.539Z,18.20
2022-07-25T05:01:41.496Z,18.25
2022-07-25T05:02:41.522Z,18.27
2022-07-25T05:03:41.505Z,18.33
2022-07-25T05:04:45.427Z,18.41
2022-07-25T05:05:41.474Z,18.45
2022-07-25T05:06:41.441Z,18.51
2022-07-25T05:07:41.416Z,18.58
2022-07-25T05:08:41.432Z,18.65
2022-07-25T05:09:41.415Z,18.70
2022-07-25T05:10:41.411Z,18.76
2022-07-25T05:11:45.229Z,18.84
2022-07-25T05:12:42.364Z,18.90
2022-07-25T05:13:41.349Z,18.98
2022-07-25T05:14:41.368Z,19.04
2022-07-25T05:15:41.333Z,19.13
2022-07-25T05:16:41.455Z,19.22
2022-07-25T05:17:41.316Z,19.28
2022-07-25T05:18:41.298Z,19.32
2022-07-25T05:19:41.279Z,19.41
2022-07-25T05:20:41.280Z,19.50
2022-07-25T05:21:41.260Z,19.56
2022-07-25T05:22:41.271Z,19.63
2022-07-25T05:23:41.296Z,19.74
2022-07-25T05:24:41.229Z,19.80
2022-07-25T05:25:41.258Z,19.84
2022-07-25T05:26:41.206Z,19.92
2022-07-25T05:27:41.205Z,19.98
2022-07-25T05:28:41.185Z,20.06
2022-07-25T05:29:41.192Z,20.13
2022-07-25T05:30:41.172Z,20.18
2022-07-25T05:31:41.230Z,20.23
2022-07-25T05:32:41.156Z,20.29
2022-07-25T05:33:41.126Z,20.33
2022-07-25T05:34:41.119Z,20.39
2022-07-25T05:35:41.088Z,20.43
2022-07-25T05:36:44.246Z,20.54
2022-07-25T05:37:42.083Z,20.62
2022-07-25T05:38:41.085Z,20.70
2022-07-25T05:39:41.073Z,20.77
2022-07-25T05:40:41.062Z,20.88
2022-07-25T05:41:41.053Z,20.95
2022-07-25T05:42:41.051Z,21.03
2022-07-25T05:43:41.055Z,21.12
2022-07-25T05:44:41.018Z,21.19
2022-07-25T05:45:41.015Z,21.29
2022-07-25T05:46:41.049Z,21.37
2022-07-25T05:47:40.995Z,21.46
2022-07-25T05:48:40.994Z,21.53
2022-07-25T05:49:40.984Z,21.62
2022-07-25T05:50:40.954Z,21.71
2022-07-25T05:51:40.928Z,21.80
2022-07-25T05:52:40.946Z,21.88
2022-07-25T05:53:40.910Z,21.98
2022-07-25T05:54:40.988Z,22.06
2022-07-25T05:55:41.073Z,22.14
2022-07-25T05:56:40.882Z,22.24
2022-07-25T05:57:40.874Z,22.35
2022-07-25T05:58:40.859Z,22.42
2022-07-25T05:59:40.847Z,22.51
2022-07-25T06:00:40.857Z,22.60
2022-07-25T06:01:40.886Z,22.67
2022-07-25T06:02:40.932Z,22.72
2022-07-25T06:03:40.835Z,22.77
2022-07-25T06:04:40.790Z,22.82
2022-07-25T06:05:40.802Z,22.85
2022-07-25T06:06:40.793Z,22.85
2022-07-25T06:07:40.748Z,22.88
2022-07-25T06:08:40.766Z,22.91
2022-07-25T06:09:40.779Z,22.94
2022-07-25T06:10:40.735Z,22.98
2022-07-25T06:11:51.050Z,23.04
2022-07-25T06:12:41.728Z,23.09
2022-07-25T06:13:40.710Z,23.16
2022-07-25T06:14:40.712Z,23.20
2022-07-25T06:15:40.684Z,23.22
2022-07-25T06:16:40.746Z,23.31
2022-07-25T06:17:40.680Z,23.33
2022-07-25T06:18:40.673Z,23.39
2022-07-25T06:19:40.630Z,23.40
2022-07-25T06:20:40.632Z,23.42
2022-07-25T06:21:40.636Z,23.42
2022-07-25T06:22:40.597Z,23.40
2022-07-25T06:23:40.625Z,23.40
2022-07-25T06:24:40.592Z,23.38
2022-07-25T06:25:40.662Z,23.42
2022-07-25T06:26:40.633Z,23.47
2022-07-25T06:27:40.560Z,23.54
2022-07-25T06:28:40.579Z,23.55
2022-07-25T06:29:40.541Z,23.58
2022-07-25T06:30:40.518Z,23.63
2022-07-25T06:31:40.539Z,23.69
2022-07-25T06:32:40.502Z,23.76
2022-07-25T06:33:40.492Z,23.80
2022-07-25T06:34:40.486Z,23.79
2022-07-25T06:35:40.453Z,23.84
2022-07-25T06:36:40.454Z,23.88
2022-07-25T06:37:40.421Z,23.93
2022-07-25T06:38:40.426Z,24.00
2022-07-25T06:39:45.270Z,24.06
2022-07-25T06:40:41.615Z,24.09
2022-07-25T06:41:40.470Z,24.08
2022-07-25T06:42:41.550Z,24.06
2022-07-25T06:43:40.475Z,24.10
2022-07-25T06:44:40.365Z,24.12
2022-07-25T06:45:40.334Z,24.20
2022-07-25T06:46:40.399Z,24.28
2022-07-25T06:47:40.334Z,24.40
2022-07-25T06:48:40.378Z,24.55
2022-07-25T06:49:40.292Z,24.65
2022-07-25T06:50:40.286Z,24.77
2022-07-25T06:51:40.291Z,24.87
2022-07-25T06:52:40.280Z,24.99
2022-07-25T06:53:40.259Z,25.09
2022-07-25T06:54:40.243Z,25.20
2022-07-25T06:55:40.255Z,25.33
2022-07-25T06:56:40.413Z,25.42
2022-07-25T06:57:40.215Z,25.47
2022-07-25T06:58:40.350Z,25.58
2022-07-25T06:59:40.347Z,25.64
2022-07-25T07:00:40.478Z,25.75
2022-07-25T07:01:40.478Z,25.80
2022-07-25T07:02:40.180Z,25.85
2022-07-25T07:03:40.426Z,25.88
2022-07-25T07:04:40.139Z,25.94
2022-07-25T07:05:40.144Z,25.98
2022-07-25T07:06:40.132Z,26.02
2022-07-25T07:07:44.417Z,26.10
2022-07-25T07:08:41.111Z,26.17
2022-07-25T07:09:40.084Z,26.25
2022-07-25T07:10:40.073Z,26.25
2022-07-25T07:11:40.077Z,26.32
2022-07-25T07:12:40.062Z,26.35
2022-07-25T07:13:40.058Z,26.40
2022-07-25T07:14:40.036Z,26.50
2022-07-25T07:15:40.080Z,26.51
2022-07-25T07:16:40.290Z,26.51
2022-07-25T07:17:40.140Z,26.57
2022-07-25T07:18:40.004Z,26.57
2022-07-25T07:19:39.982Z,26.57
2022-07-25T07:20:39.977Z,26.58
2022-07-25T07:21:39.976Z,26.62
2022-07-25T07:22:39.963Z,26.62
2022-07-25T07:23:39.947Z,26.69
2022-07-25T07:24:44.296Z,26.76
2022-07-25T07:25:40.914Z,26.81
2022-07-25T07:26:40.031Z,26.81
2022-07-25T07:27:39.937Z,26.84
2022-07-25T07:28:40.021Z,26.84
2022-07-25T07:29:39.899Z,26.84
2022-07-25T07:31:13.480Z,26.87
2022-07-25T07:31:40.891Z,26.88
2022-07-25T07:32:39.831Z,26.88
2022-07-25T07:33:39.868Z,26.91
2022-07-25T07:34:39.831Z,26.97
2022-07-25T07:35:39.871Z,27.03
2022-07-25T07:36:39.879Z,27.07
2022-07-25T07:37:43.616Z,27.12
2022-07-25T07:38:39.863Z,27.13
2022-07-25T07:39:39.751Z,27.21
2022-07-25T07:40:39.785Z,27.22
2022-07-25T07:41:39.746Z,27.22
2022-07-25T07:42:39.760Z,27.22
2022-07-25T07:43:39.720Z,27.22
2022-07-25T07:44:39.736Z,27.27
2022-07-25T07:45:39.701Z,27.29
2022-07-25T07:46:39.757Z,27.32
2022-07-25T07:47:39.684Z,27.39
2022-07-25T07:48:40.218Z,27.44
2022-07-25T07:49:39.679Z,27.59
2022-07-25T07:50:39.932Z,27.72
2022-07-25T07:51:39.752Z,27.75
2022-07-25T07:52:39.731Z,27.81
2022-07-25T07:53:39.635Z,27.78
2022-07-25T07:54:39.676Z,27.79
2022-07-25T07:55:39.610Z,27.88
2022-07-25T07:56:39.608Z,27.97
2022-07-25T07:57:39.574Z,28.11
2022-07-25T07:58:39.878Z,28.11
2022-07-25T07:59:39.819Z,28.07
2022-07-25T08:00:39.562Z,28.09
2022-07-25T08:01:39.582Z,28.12
2022-07-25T08:02:39.626Z,28.14
2022-07-25T08:03:39.566Z,28.12
2022-07-25T08:04:39.503Z,28.17
2022-07-25T08:05:39.511Z,28.17
2022-07-25T08:06:39.475Z,28.22
2022-07-25T08:07:39.491Z,28.34
2022-07-25T08:08:39.462Z,28.41
2022-07-25T08:09:39.442Z,28.46
2022-07-25T08:10:39.598Z,28.55
2022-07-25T08:11:39.502Z,28.74
2022-07-25T08:12:39.448Z,28.85
2022-07-25T08:13:39.425Z,28.88
2022-07-25T08:14:39.419Z,28.93
2022-07-25T08:15:39.467Z,29.02
2022-07-25T08:16:39.450Z,29.09
2022-07-25T08:17:39.392Z,29.08
2022-07-25T08:18:39.346Z,29.12
2022-07-25T08:19:39.352Z,29.28
2022-07-25T08:20:39.539Z,29.46
2022-07-25T08:21:39.316Z,29.64
2022-07-25T08:22:39.309Z,29.74
2022-07-25T08:23:39.471Z,29.87
2022-07-25T08:24:39.267Z,29.90
2022-07-25T08:25:39.281Z,29.87
2022-07-25T08:26:39.266Z,29.97
2022-07-25T08:27:39.255Z,30.15
2022-07-25T08:28:39.256Z,30.20
2022-07-25T08:29:39.313Z,30.31
2022-07-25T08:30:39.209Z,30.45
2022-07-25T08:31:39.275Z,30.53
2022-07-25T08:32:39.226Z,30.67
2022-07-25T08:33:39.191Z,30.55
2022-07-25T08:34:39.536Z,30.57
2022-07-25T08:35:39.186Z,30.55
2022-07-25T08:36:39.178Z,30.57
2022-07-25T08:37:39.283Z,30.53
2022-07-25T08:38:39.125Z,30.43
2022-07-25T08:39:39.194Z,30.43
2022-07-25T08:40:39.121Z,30.47
2022-07-25T08:41:39.118Z,30.54
2022-07-25T08:42:39.095Z,30.58
2022-07-25T08:43:39.151Z,30.64
2022-07-25T08:44:39.066Z,30.73
2022-07-25T08:45:39.067Z,30.76
2022-07-25T08:46:39.124Z,30.80
2022-07-25T08:47:39.035Z,30.77
2022-07-25T08:48:39.145Z,30.75
2022-07-25T08:49:39.070Z,30.75
2022-07-25T08:50:39.006Z,30.70
2022-07-25T08:51:39.000Z,30.57
2022-07-25T08:52:39.012Z,30.61
2022-07-25T08:53:39.385Z,30.73
2022-07-25T08:54:39.008Z,30.82
2022-07-25T08:55:38.973Z,30.86
2022-07-25T08:56:39.643Z,30.75
2022-07-25T08:57:38.925Z,30.76
2022-07-25T08:58:38.969Z,30.76
2022-07-25T08:59:38.915Z,30.75
2022-07-25T09:00:39.079Z,30.77
2022-07-25T09:01:38.923Z,30.69
2022-07-25T09:02:38.936Z,30.72
2022-07-25T09:03:38.894Z,30.73
2022-07-25T09:04:38.875Z,30.83
2022-07-25T09:05:39.000Z,30.97
2022-07-25T09:06:38.959Z,31.10
2022-07-25T09:07:39.530Z,31.13
2022-07-25T09:08:39.221Z,31.25
2022-07-25T09:09:39.717Z,31.28
2022-07-25T09:10:38.938Z,31.12
2022-07-25T09:11:38.855Z,30.98
2022-07-25T09:12:39.598Z,30.98
2022-07-25T09:13:39.210Z,31.01
2022-07-25T09:14:38.851Z,30.98
2022-07-25T09:15:38.777Z,30.94
2022-07-25T09:16:40.047Z,30.88
2022-07-25T09:17:38.741Z,30.99
2022-07-25T09:18:39.942Z,30.97
2022-07-25T09:19:38.881Z,30.98
2022-07-25T09:20:39.548Z,31.06
2022-07-25T09:21:38.722Z,31.04
2022-07-25T09:22:39.278Z,31.06
2022-07-25T09:23:38.666Z,31.01
2022-07-25T09:24:38.664Z,30.91
2022-07-25T09:25:38.642Z,31.04
2022-07-25T09:26:39.959Z,30.91
2022-07-25T09:27:38.826Z,30.82
2022-07-25T09:28:39.620Z,30.76
2022-07-25T09:29:38.681Z,30.79
2022-07-25T09:30:38.615Z,30.79
2022-07-25T09:31:38.757Z,30.86
2022-07-25T09:32:38.600Z,30.97
2022-07-25T09:33:45.799Z,31.02
2022-07-25T09:34:38.585Z,31.13
2022-07-25T09:35:38.542Z,31.12
2022-07-25T09:36:38.505Z,31.02
2022-07-25T09:37:38.515Z,31.01
2022-07-25T09:38:38.494Z,30.99
2022-07-25T09:39:42.180Z,31.01
2022-07-25T09:40:39.495Z,30.92
2022-07-25T09:41:38.491Z,30.75
2022-07-25T09:42:38.457Z,30.69
2022-07-25T09:43:38.472Z,30.58
2022-07-25T09:44:38.448Z,30.54
2022-07-25T09:45:38.428Z,30.65
2022-07-25T09:46:38.490Z,30.80
2022-07-25T09:47:38.412Z,30.84
2022-07-25T09:48:38.433Z,30.79
2022-07-25T09:49:38.381Z,30.89
2022-07-25T09:50:38.364Z,30.99
2022-07-25T09:51:38.380Z,31.02
2022-07-25T09:52:38.355Z,31.04
2022-07-25T09:53:38.366Z,31.02
2022-07-25T09:54:38.322Z,31.06
2022-07-25T09:55:38.318Z,31.06
2022-07-25T09:56:38.310Z,31.04
2022-07-25T09:57:38.308Z,31.10
2022-07-25T09:58:38.283Z,31.09
2022-07-25T09:59:38.511Z,31.10
2022-07-25T10:00:38.261Z,31.07
2022-07-25T10:01:38.294Z,30.99
2022-07-25T10:02:38.524Z,30.89
2022-07-25T10:03:38.241Z,30.92
2022-07-25T10:04:38.235Z,30.88
2022-07-25T10:05:38.213Z,30.88
2022-07-25T10:06:38.262Z,30.91
2022-07-25T10:07:38.183Z,30.75
2022-07-25T10:08:38.197Z,30.75
2022-07-25T10:09:38.199Z,30.79
2022-07-25T10:10:38.178Z,30.76
2022-07-25T10:11:38.188Z,30.69
2022-07-25T10:12:38.150Z,30.60
2022-07-25T10:13:38.207Z,30.64
2022-07-25T10:14:38.549Z,30.57
2022-07-25T10:15:38.227Z,30.54
2022-07-25T10:16:38.334Z,30.51
2022-07-25T10:17:38.080Z,30.38
2022-07-25T10:18:38.202Z,30.29
2022-07-25T10:19:38.072Z,30.24
2022-07-25T10:20:38.046Z,30.27
2022-07-25T10:21:38.036Z,30.31
2022-07-25T10:22:55.360Z,30.29
2022-07-25T10:23:39.024Z,30.29
2022-07-25T10:24:38.008Z,30.35
2022-07-25T10:25:38.006Z,30.31
2022-07-25T10:26:37.993Z,30.26
2022-07-25T10:27:37.979Z,30.19
2022-07-25T10:28:37.976Z,30.04
2022-07-25T10:29:37.948Z,30.04
2022-07-25T10:30:38.000Z,30.00
2022-07-25T10:31:37.924Z,29.97
2022-07-25T10:32:38.325Z,29.97
2022-07-25T10:33:37.941Z,30.00
2022-07-25T10:34:37.919Z,29.94
2022-07-25T10:35:37.894Z,30.00
2022-07-25T10:36:37.871Z,29.97
2022-07-25T10:37:37.868Z,29.95
2022-07-25T10:38:37.860Z,29.97
2022-07-25T10:39:38.323Z,29.95
2022-07-25T10:40:37.834Z,29.95
2022-07-25T10:41:37.826Z,29.92
2022-07-25T10:42:37.884Z,29.95
2022-07-25T10:43:37.795Z,30.02
2022-07-25T10:44:37.792Z,30.19
2022-07-25T10:45:38.800Z,30.37
2022-07-25T10:46:37.812Z,30.34
2022-07-25T10:47:37.776Z,30.31
2022-07-25T10:48:37.800Z,30.19
2022-07-25T10:49:38.870Z,30.16
2022-07-25T10:50:54.914Z,30.16
2022-07-25T10:51:41.903Z,29.90
2022-07-25T10:52:37.696Z,29.95
2022-07-25T10:53:37.703Z,30.16
2022-07-25T10:54:37.685Z,30.10
2022-07-25T10:55:37.777Z,30.23
2022-07-25T10:56:37.678Z,30.20
2022-07-25T10:57:49.622Z,30.23
2022-07-25T10:58:38.637Z,30.32
2022-07-25T10:59:37.653Z,30.24
2022-07-25T11:00:37.724Z,30.29
2022-07-25T11:01:37.640Z,30.37
2022-07-25T11:02:37.649Z,30.32
2022-07-25T11:03:37.749Z,30.31
2022-07-25T11:04:38.168Z,30.64
2022-07-25T11:05:37.557Z,30.92
2022-07-25T11:06:37.950Z,31.19
2022-07-25T11:07:37.547Z,31.25
2022-07-25T11:08:37.538Z,31.19
2022-07-25T11:09:37.511Z,31.26
2022-07-25T11:10:37.525Z,31.34
2022-07-25T11:11:37.509Z,31.54
2022-07-25T11:12:37.493Z,31.69
2022-07-25T11:13:37.576Z,31.72
2022-07-25T11:14:37.524Z,31.54
2022-07-25T11:15:37.485Z,31.29
2022-07-25T11:16:37.467Z,31.13
2022-07-25T11:17:37.437Z,30.91
2022-07-25T11:18:37.433Z,30.97
2022-07-25T11:19:37.410Z,30.99
2022-07-25T11:20:37.413Z,31.01
2022-07-25T11:21:37.391Z,31.01
2022-07-25T11:22:37.381Z,31.10
2022-07-25T11:23:37.377Z,31.09
2022-07-25T11:24:37.364Z,31.17
2022-07-25T11:25:37.356Z,31.16
2022-07-25T11:26:37.354Z,31.12
2022-07-25T11:27:37.339Z,31.23
2022-07-25T11:28:37.335Z,31.04
2022-07-25T11:29:37.313Z,31.06
2022-07-25T11:30:37.307Z,31.01
2022-07-25T11:31:37.323Z,30.88
2022-07-25T11:32:37.288Z,30.97
2022-07-25T11:33:38.905Z,30.99
2022-07-25T11:34:37.260Z,31.06
2022-07-25T11:35:37.435Z,30.94
2022-07-25T11:36:37.249Z,30.92
2022-07-25T11:37:37.218Z,31.07
2022-07-25T11:38:37.220Z,31.06
2022-07-25T11:39:37.203Z,31.17
2022-07-25T11:40:37.215Z,31.23
2022-07-25T11:41:37.234Z,31.12
2022-07-25T11:42:37.181Z,31.09
2022-07-25T11:43:37.171Z,31.12
2022-07-25T11:44:37.146Z,31.13
2022-07-25T11:45:37.326Z,31.16
2022-07-25T11:46:37.136Z,31.09
2022-07-25T11:47:37.219Z,31.17
2022-07-25T11:48:37.529Z,31.29
2022-07-25T11:49:37.113Z,31.32
2022-07-25T11:50:37.101Z,31.26
2022-07-25T11:51:37.083Z,31.16
2022-07-25T11:52:37.074Z,31.12
2022-07-25T11:53:37.721Z,31.01
2022-07-25T11:54:37.094Z,30.80
2022-07-25T11:55:37.044Z,30.69
2022-07-25T11:56:44.221Z,30.62
2022-07-25T11:57:38.018Z,30.42
2022-07-25T11:58:37.002Z,30.35
2022-07-25T11:59:36.999Z,30.32
2022-07-25T12:00:37.278Z,30.20
2022-07-25T12:01:37.004Z,30.19
2022-07-25T12:02:37.192Z,30.15
2022-07-25T12:03:37.072Z,30.01
2022-07-25T12:04:36.958Z,29.98
2022-07-25T12:05:37.092Z,29.95
2022-07-25T12:06:36.994Z,29.98
2022-07-25T12:07:37.268Z,30.01
2022-07-25T12:08:36.959Z,30.05
2022-07-25T12:09:37.282Z,30.07
2022-07-25T12:10:36.932Z,30.11
2022-07-25T12:11:37.092Z,30.15
2022-07-25T12:12:37.335Z,30.13
2022-07-25T12:13:37.227Z,30.11
2022-07-25T12:14:36.958Z,30.10
2022-07-25T12:15:37.011Z,30.07
2022-07-25T12:16:36.993Z,30.05
2022-07-25T12:17:36.978Z,30.10
2022-07-25T12:18:37.140Z,30.20
2022-07-25T12:19:36.979Z,30.32
2022-07-25T12:20:37.191Z,30.58
2022-07-25T12:21:36.823Z,30.73
2022-07-25T12:22:36.765Z,30.95
2022-07-25T12:23:36.744Z,31.25
2022-07-25T12:24:36.739Z,31.62
2022-07-25T12:25:36.730Z,31.80
2022-07-25T12:26:36.727Z,31.95
2022-07-25T12:27:36.707Z,32.22
2022-07-25T12:28:36.717Z,32.30
2022-07-25T12:29:36.692Z,32.44
2022-07-25T12:30:36.706Z,32.50
2022-07-25T12:31:36.667Z,32.69
2022-07-25T12:32:36.651Z,32.84
2022-07-25T12:33:36.637Z,32.93
2022-07-25T12:34:36.640Z,32.69
2022-07-25T12:35:36.625Z,32.51
2022-07-25T12:36:36.768Z,32.45
2022-07-25T12:37:36.616Z,32.52
2022-07-25T12:38:36.593Z,32.66
2022-07-25T12:39:36.587Z,32.52
2022-07-25T12:40:36.600Z,32.56
2022-07-25T12:41:36.570Z,32.32
2022-07-25T12:42:36.566Z,32.40
2022-07-25T12:43:36.663Z,32.59
2022-07-25T12:44:36.535Z,32.70
2022-07-25T12:45:36.565Z,32.77
2022-07-25T12:46:36.508Z,32.57
2022-07-25T12:47:36.504Z,32.62
2022-07-25T12:48:36.526Z,32.63
2022-07-25T12:49:36.503Z,32.79
2022-07-25T12:50:36.484Z,32.97
2022-07-25T12:51:36.457Z,33.01
2022-07-25T12:52:36.472Z,33.04